sensor_id;sensor_type;location;lat;lon;timestamp;temperature;humidity
54202;DHT22;40108;53.152;5.844;2023-11-22T00:01:22;4.70;95.10
54202;DHT22;40108;53.152;5.844;2023-11-22T00:03:47;4.60;95.00
54202;DHT22;40108;53.152;5.844;2023-11-22T00:06:13;4.60;95.10
54202;DHT22;40108;53.152;5.844;2023-11-22T00:08:39;4.50;95.00
54202;DHT22;40108;53.152;5.844;2023-11-22T00:11:04;4.50;95.10
54202;DHT22;40108;53.152;5.844;2023-11-22T00:13:30;4.60;95.10
54202;DHT22;40108;53.152;5.844;2023-11-22T00:15:57;4.50;95.10
54202;DHT22;40108;53.152;5.844;2023-11-22T00:18:23;4.50;95.00
54202;DHT22;40108;53.152;5.844;2023-11-22T00:20:50;4.40;95.00
54202;DHT22;40108;53.152;5.844;2023-11-22T00:23:15;4.40;95.00
54202;DHT22;40108;53.152;5.844;2023-11-22T00:25:41;4.40;95.10
54202;DHT22;40108;53.152;5.844;2023-11-22T00:28:07;4.40;95.20
54202;DHT22;40108;53.152;5.844;2023-11-22T00:30:33;4.40;95.30
54202;DHT22;40108;53.152;5.844;2023-11-22T00:32:58;4.50;95.30
54202;DHT22;40108;53.152;5.844;2023-11-22T00:35:25;4.50;95.20
54202;DHT22;40108;53.152;5.844;2023-11-22T00:37:51;4.40;95.20
54202;DHT22;40108;53.152;5.844;2023-11-22T00:40:17;4.40;95.30
54202;DHT22;40108;53.152;5.844;2023-11-22T00:42:42;4.40;95.30
54202;DHT22;40108;53.152;5.844;2023-11-22T00:45:09;4.50;95.30
54202;DHT22;40108;53.152;5.844;2023-11-22T00:47:35;4.50;95.30
54202;DHT22;40108;53.152;5.844;2023-11-22T00:50:02;4.40;95.40
54202;DHT22;40108;53.152;5.844;2023-11-22T00:52:30;4.30;95.30
54202;DHT22;40108;53.152;5.844;2023-11-22T00:54:55;4.30;95.20
54202;DHT22;40108;53.152;5.844;2023-11-22T00:57:21;4.20;95.20
54202;DHT22;40108;53.152;5.844;2023-11-22T00:59:47;4.20;95.30
54202;DHT22;40108;53.152;5.844;2023-11-22T01:02:13;4.20;95.40
54202;DHT22;40108;53.152;5.844;2023-11-22T01:04:39;4.20;95.40
54202;DHT22;40108;53.152;5.844;2023-11-22T01:07:05;4.20;95.40
54202;DHT22;40108;53.152;5.844;2023-11-22T01:09:32;4.20;95.40
54202;DHT22;40108;53.152;5.844;2023-11-22T01:11:59;4.20;95.40
54202;DHT22;40108;53.152;5.844;2023-11-22T01:14:25;4.20;95.50
54202;DHT22;40108;53.152;5.844;2023-11-22T01:16:52;4.20;95.40
54202;DHT22;40108;53.152;5.844;2023-11-22T01:19:17;4.20;95.40
54202;DHT22;40108;53.152;5.844;2023-11-22T01:21:43;4.10;95.40
54202;DHT22;40108;53.152;5.844;2023-11-22T01:24:09;4.10;95.50
54202;DHT22;40108;53.152;5.844;2023-11-22T01:26:35;4.00;95.40
54202;DHT22;40108;53.152;5.844;2023-11-22T01:29:00;4.00;95.50
54202;DHT22;40108;53.152;5.844;2023-11-22T01:31:28;4.00;95.50
54202;DHT22;40108;53.152;5.844;2023-11-22T01:33:54;4.00;95.60
54202;DHT22;40108;53.152;5.844;2023-11-22T01:36:20;4.10;95.70
54202;DHT22;40108;53.152;5.844;2023-11-22T01:38:46;4.20;95.80
54202;DHT22;40108;53.152;5.844;2023-11-22T01:41:13;4.10;95.70
54202;DHT22;40108;53.152;5.844;2023-11-22T01:43:39;4.20;95.70
54202;DHT22;40108;53.152;5.844;2023-11-22T01:46:12;4.10;95.70
54202;DHT22;40108;53.152;5.844;2023-11-22T01:48:42;4.10;95.80
54202;DHT22;40108;53.152;5.844;2023-11-22T01:51:08;4.10;95.70
54202;DHT22;40108;53.152;5.844;2023-11-22T01:53:34;4.10;95.70
54202;DHT22;40108;53.152;5.844;2023-11-22T01:56:00;4.00;95.70
54202;DHT22;40108;53.152;5.844;2023-11-22T01:58:27;4.10;95.60
54202;DHT22;40108;53.152;5.844;2023-11-22T02:00:53;4.00;95.60
54202;DHT22;40108;53.152;5.844;2023-11-22T02:03:19;4.00;95.50
54202;DHT22;40108;53.152;5.844;2023-11-22T02:05:45;4.10;95.60
54202;DHT22;40108;53.152;5.844;2023-11-22T02:08:11;4.10;95.60
54202;DHT22;40108;53.152;5.844;2023-11-22T02:10:38;4.00;95.60
54202;DHT22;40108;53.152;5.844;2023-11-22T02:13:05;4.00;95.50
54202;DHT22;40108;53.152;5.844;2023-11-22T02:15:36;4.00;95.60
54202;DHT22;40108;53.152;5.844;2023-11-22T02:18:03;4.10;95.80
54202;DHT22;40108;53.152;5.844;2023-11-22T02:20:32;4.20;95.90
54202;DHT22;40108;53.152;5.844;2023-11-22T02:23:08;4.20;96.00
54202;DHT22;40108;53.152;5.844;2023-11-22T02:25:34;4.20;96.00
54202;DHT22;40108;53.152;5.844;2023-11-22T02:28:01;4.20;95.90
54202;DHT22;40108;53.152;5.844;2023-11-22T02:30:28;4.20;95.70
54202;DHT22;40108;53.152;5.844;2023-11-22T02:32:53;4.20;95.70
54202;DHT22;40108;53.152;5.844;2023-11-22T02:35:19;4.20;95.60
54202;DHT22;40108;53.152;5.844;2023-11-22T02:37:45;4.20;95.60
54202;DHT22;40108;53.152;5.844;2023-11-22T02:40:20;4.20;95.50
54202;DHT22;40108;53.152;5.844;2023-11-22T02:42:50;4.20;95.50
54202;DHT22;40108;53.152;5.844;2023-11-22T02:45:17;4.20;95.50
54202;DHT22;40108;53.152;5.844;2023-11-22T02:47:43;4.20;95.50
54202;DHT22;40108;53.152;5.844;2023-11-22T02:50:15;4.20;95.50
54202;DHT22;40108;53.152;5.844;2023-11-22T02:52:41;4.30;95.60
54202;DHT22;40108;53.152;5.844;2023-11-22T02:55:08;4.30;95.60
54202;DHT22;40108;53.152;5.844;2023-11-22T02:57:37;4.30;95.50
54202;DHT22;40108;53.152;5.844;2023-11-22T03:00:04;4.30;95.50
54202;DHT22;40108;53.152;5.844;2023-11-22T03:02:30;4.30;95.60
54202;DHT22;40108;53.152;5.844;2023-11-22T03:04:57;4.30;95.60
54202;DHT22;40108;53.152;5.844;2023-11-22T03:07:25;4.30;95.60
54202;DHT22;40108;53.152;5.844;2023-11-22T03:09:50;4.30;95.60
54202;DHT22;40108;53.152;5.844;2023-11-22T03:12:16;4.30;95.60
54202;DHT22;40108;53.152;5.844;2023-11-22T03:14:43;4.20;95.50
54202;DHT22;40108;53.152;5.844;2023-11-22T03:17:09;4.20;95.60
54202;DHT22;40108;53.152;5.844;2023-11-22T03:19:34;4.20;95.60
54202;DHT22;40108;53.152;5.844;2023-11-22T03:22:01;4.20;95.50
54202;DHT22;40108;53.152;5.844;2023-11-22T03:24:29;4.20;95.60
54202;DHT22;40108;53.152;5.844;2023-11-22T03:26:56;4.20;95.60
54202;DHT22;40108;53.152;5.844;2023-11-22T03:29:25;4.10;95.60
54202;DHT22;40108;53.152;5.844;2023-11-22T03:31:50;4.10;95.60
54202;DHT22;40108;53.152;5.844;2023-11-22T03:34:18;4.10;95.60
54202;DHT22;40108;53.152;5.844;2023-11-22T03:36:43;4.20;95.70
54202;DHT22;40108;53.152;5.844;2023-11-22T03:39:09;4.10;95.60
54202;DHT22;40108;53.152;5.844;2023-11-22T03:41:36;4.00;95.50
54202;DHT22;40108;53.152;5.844;2023-11-22T03:44:03;3.90;95.40
54202;DHT22;40108;53.152;5.844;2023-11-22T03:46:30;3.80;95.40
54202;DHT22;40108;53.152;5.844;2023-11-22T03:48:56;3.70;95.40
54202;DHT22;40108;53.152;5.844;2023-11-22T03:51:21;3.70;95.50
54202;DHT22;40108;53.152;5.844;2023-11-22T03:53:47;3.70;95.60
54202;DHT22;40108;53.152;5.844;2023-11-22T03:56:13;3.70;95.60
54202;DHT22;40108;53.152;5.844;2023-11-22T03:58:40;3.80;95.70
54202;DHT22;40108;53.152;5.844;2023-11-22T04:01:05;3.70;95.70
54202;DHT22;40108;53.152;5.844;2023-11-22T04:03:31;3.70;95.50
54202;DHT22;40108;53.152;5.844;2023-11-22T04:05:57;3.60;95.40
54202;DHT22;40108;53.152;5.844;2023-11-22T04:08:24;3.50;95.40
54202;DHT22;40108;53.152;5.844;2023-11-22T04:10:50;3.50;95.40
54202;DHT22;40108;53.152;5.844;2023-11-22T04:13:16;3.40;95.50
54202;DHT22;40108;53.152;5.844;2023-11-22T04:15:41;3.40;95.60
54202;DHT22;40108;53.152;5.844;2023-11-22T04:18:07;3.40;95.50
54202;DHT22;40108;53.152;5.844;2023-11-22T04:20:33;3.40;95.50
54202;DHT22;40108;53.152;5.844;2023-11-22T04:22:58;3.40;95.60
54202;DHT22;40108;53.152;5.844;2023-11-22T04:25:24;3.40;95.60
54202;DHT22;40108;53.152;5.844;2023-11-22T04:27:50;3.30;95.50
54202;DHT22;40108;53.152;5.844;2023-11-22T04:30:15;3.40;95.60
54202;DHT22;40108;53.152;5.844;2023-11-22T04:32:43;3.30;95.60
54202;DHT22;40108;53.152;5.844;2023-11-22T04:35:09;3.30;95.70
54202;DHT22;40108;53.152;5.844;2023-11-22T04:37:36;3.30;95.60
54202;DHT22;40108;53.152;5.844;2023-11-22T04:40:04;3.30;95.60
54202;DHT22;40108;53.152;5.844;2023-11-22T04:42:34;3.30;95.60
54202;DHT22;40108;53.152;5.844;2023-11-22T04:45:02;3.30;95.70
54202;DHT22;40108;53.152;5.844;2023-11-22T04:47:28;3.30;95.70
54202;DHT22;40108;53.152;5.844;2023-11-22T04:49:54;3.30;95.80
54202;DHT22;40108;53.152;5.844;2023-11-22T04:52:20;3.30;95.80
54202;DHT22;40108;53.152;5.844;2023-11-22T04:54:45;3.30;95.80
54202;DHT22;40108;53.152;5.844;2023-11-22T04:57:11;3.40;95.80
54202;DHT22;40108;53.152;5.844;2023-11-22T04:59:36;3.40;95.90
54202;DHT22;40108;53.152;5.844;2023-11-22T05:02:04;3.40;96.00
54202;DHT22;40108;53.152;5.844;2023-11-22T05:04:29;3.40;96.00
54202;DHT22;40108;53.152;5.844;2023-11-22T05:06:55;3.50;96.00
54202;DHT22;40108;53.152;5.844;2023-11-22T05:09:21;3.50;96.00
54202;DHT22;40108;53.152;5.844;2023-11-22T05:11:47;3.50;95.90
54202;DHT22;40108;53.152;5.844;2023-11-22T05:14:13;3.40;95.90
54202;DHT22;40108;53.152;5.844;2023-11-22T05:16:39;3.50;95.80
54202;DHT22;40108;53.152;5.844;2023-11-22T05:19:04;3.40;95.80
54202;DHT22;40108;53.152;5.844;2023-11-22T05:21:31;3.40;95.80
54202;DHT22;40108;53.152;5.844;2023-11-22T05:23:58;3.40;95.80
54202;DHT22;40108;53.152;5.844;2023-11-22T05:26:24;3.40;95.70
54202;DHT22;40108;53.152;5.844;2023-11-22T05:28:50;3.30;95.70
54202;DHT22;40108;53.152;5.844;2023-11-22T05:31:16;3.30;95.70
54202;DHT22;40108;53.152;5.844;2023-11-22T05:33:42;3.30;95.70
54202;DHT22;40108;53.152;5.844;2023-11-22T05:36:08;3.30;95.80
54202;DHT22;40108;53.152;5.844;2023-11-22T05:38:34;3.30;95.70
54202;DHT22;40108;53.152;5.844;2023-11-22T05:41:02;3.30;95.80
54202;DHT22;40108;53.152;5.844;2023-11-22T05:43:28;3.20;95.80
54202;DHT22;40108;53.152;5.844;2023-11-22T05:45:54;3.20;95.80
54202;DHT22;40108;53.152;5.844;2023-11-22T05:48:19;3.20;95.80
54202;DHT22;40108;53.152;5.844;2023-11-22T05:50:46;3.20;95.80
54202;DHT22;40108;53.152;5.844;2023-11-22T05:53:12;3.20;95.80
54202;DHT22;40108;53.152;5.844;2023-11-22T05:55:38;3.20;95.80
54202;DHT22;40108;53.152;5.844;2023-11-22T05:58:04;3.20;95.80
54202;DHT22;40108;53.152;5.844;2023-11-22T06:00:29;3.20;95.80
54202;DHT22;40108;53.152;5.844;2023-11-22T06:02:55;3.10;95.80
54202;DHT22;40108;53.152;5.844;2023-11-22T06:05:21;3.10;95.80
54202;DHT22;40108;53.152;5.844;2023-11-22T06:07:47;3.10;95.80
54202;DHT22;40108;53.152;5.844;2023-11-22T06:10:13;3.10;95.80
54202;DHT22;40108;53.152;5.844;2023-11-22T06:12:41;3.10;95.80
54202;DHT22;40108;53.152;5.844;2023-11-22T06:15:07;3.00;95.80
54202;DHT22;40108;53.152;5.844;2023-11-22T06:17:33;3.00;95.80
54202;DHT22;40108;53.152;5.844;2023-11-22T06:19:58;3.10;95.80
54202;DHT22;40108;53.152;5.844;2023-11-22T06:22:24;3.00;95.80
54202;DHT22;40108;53.152;5.844;2023-11-22T06:24:50;3.00;95.80
54202;DHT22;40108;53.152;5.844;2023-11-22T06:27:15;3.00;95.80
54202;DHT22;40108;53.152;5.844;2023-11-22T06:29:41;3.00;95.80
54202;DHT22;40108;53.152;5.844;2023-11-22T06:32:09;3.00;95.80
54202;DHT22;40108;53.152;5.844;2023-11-22T06:34:35;3.00;95.80
54202;DHT22;40108;53.152;5.844;2023-11-22T06:37:02;3.00;95.80
54202;DHT22;40108;53.152;5.844;2023-11-22T06:39:28;3.00;95.80
54202;DHT22;40108;53.152;5.844;2023-11-22T06:41:53;2.90;95.80
54202;DHT22;40108;53.152;5.844;2023-11-22T06:44:19;2.90;95.80
54202;DHT22;40108;53.152;5.844;2023-11-22T06:46:45;2.90;95.80
54202;DHT22;40108;53.152;5.844;2023-11-22T06:49:10;2.90;95.80
54202;DHT22;40108;53.152;5.844;2023-11-22T06:51:36;2.90;95.90
54202;DHT22;40108;53.152;5.844;2023-11-22T06:54:02;2.80;95.80
54202;DHT22;40108;53.152;5.844;2023-11-22T06:56:29;2.80;95.90
54202;DHT22;40108;53.152;5.844;2023-11-22T06:58:54;2.90;95.90
54202;DHT22;40108;53.152;5.844;2023-11-22T07:01:23;2.80;95.90
54202;DHT22;40108;53.152;5.844;2023-11-22T07:03:51;2.80;95.90
54202;DHT22;40108;53.152;5.844;2023-11-22T07:06:18;2.70;95.90
54202;DHT22;40108;53.152;5.844;2023-11-22T07:08:47;2.80;96.00
54202;DHT22;40108;53.152;5.844;2023-11-22T07:11:12;2.80;96.00
54202;DHT22;40108;53.152;5.844;2023-11-22T07:13:39;2.80;96.10
54202;DHT22;40108;53.152;5.844;2023-11-22T07:16:06;2.70;96.00
54202;DHT22;40108;53.152;5.844;2023-11-22T07:18:32;2.80;96.10
54202;DHT22;40108;53.152;5.844;2023-11-22T07:20:59;2.70;96.10
54202;DHT22;40108;53.152;5.844;2023-11-22T07:23:25;2.70;96.10
54202;DHT22;40108;53.152;5.844;2023-11-22T07:25:55;2.70;96.20
54202;DHT22;40108;53.152;5.844;2023-11-22T07:28:21;2.70;96.30
54202;DHT22;40108;53.152;5.844;2023-11-22T07:30:46;2.70;96.30
54202;DHT22;40108;53.152;5.844;2023-11-22T07:33:14;2.70;96.40
54202;DHT22;40108;53.152;5.844;2023-11-22T07:35:43;2.80;96.40
54202;DHT22;40108;53.152;5.844;2023-11-22T07:38:08;2.80;96.40
54202;DHT22;40108;53.152;5.844;2023-11-22T07:40:36;2.90;96.40
54202;DHT22;40108;53.152;5.844;2023-11-22T07:43:02;2.90;96.50
54202;DHT22;40108;53.152;5.844;2023-11-22T07:45:31;3.00;96.50
54202;DHT22;40108;53.152;5.844;2023-11-22T07:47:57;3.00;96.50
54202;DHT22;40108;53.152;5.844;2023-11-22T07:50:26;3.10;96.50
54202;DHT22;40108;53.152;5.844;2023-11-22T07:52:51;3.10;96.50
54202;DHT22;40108;53.152;5.844;2023-11-22T07:55:17;3.10;96.40
54202;DHT22;40108;53.152;5.844;2023-11-22T07:57:50;3.20;96.50
54202;DHT22;40108;53.152;5.844;2023-11-22T08:00:21;3.20;96.50
54202;DHT22;40108;53.152;5.844;2023-11-22T08:02:48;3.20;96.40
54202;DHT22;40108;53.152;5.844;2023-11-22T08:05:16;3.20;96.50
54202;DHT22;40108;53.152;5.844;2023-11-22T08:07:43;3.20;96.50
54202;DHT22;40108;53.152;5.844;2023-11-22T08:10:11;3.20;96.50
54202;DHT22;40108;53.152;5.844;2023-11-22T08:12:48;3.20;96.40
54202;DHT22;40108;53.152;5.844;2023-11-22T08:15:16;3.30;96.40
54202;DHT22;40108;53.152;5.844;2023-11-22T08:17:43;3.30;96.40
54202;DHT22;40108;53.152;5.844;2023-11-22T08:20:09;3.30;96.40
54202;DHT22;40108;53.152;5.844;2023-11-22T08:22:42;3.40;96.40
54202;DHT22;40108;53.152;5.844;2023-11-22T08:25:09;3.40;96.40
54202;DHT22;40108;53.152;5.844;2023-11-22T08:27:38;3.40;96.40
54202;DHT22;40108;53.152;5.844;2023-11-22T08:30:05;3.50;96.40
54202;DHT22;40108;53.152;5.844;2023-11-22T08:32:31;3.50;96.40
54202;DHT22;40108;53.152;5.844;2023-11-22T08:34:57;3.50;96.40
54202;DHT22;40108;53.152;5.844;2023-11-22T08:37:24;3.40;96.40
54202;DHT22;40108;53.152;5.844;2023-11-22T08:39:50;3.50;96.30
54202;DHT22;40108;53.152;5.844;2023-11-22T08:42:15;3.50;96.30
54202;DHT22;40108;53.152;5.844;2023-11-22T08:44:41;3.50;96.30
54202;DHT22;40108;53.152;5.844;2023-11-22T08:47:07;3.50;96.40
54202;DHT22;40108;53.152;5.844;2023-11-22T08:49:34;3.50;96.30
54202;DHT22;40108;53.152;5.844;2023-11-22T08:52:00;3.50;96.30
54202;DHT22;40108;53.152;5.844;2023-11-22T08:54:28;3.60;96.30
54202;DHT22;40108;53.152;5.844;2023-11-22T08:56:54;3.60;96.30
54202;DHT22;40108;53.152;5.844;2023-11-22T08:59:23;3.60;96.30
54202;DHT22;40108;53.152;5.844;2023-11-22T09:01:48;3.60;96.20
54202;DHT22;40108;53.152;5.844;2023-11-22T09:04:14;3.60;96.30
54202;DHT22;40108;53.152;5.844;2023-11-22T09:06:41;3.60;96.30
54202;DHT22;40108;53.152;5.844;2023-11-22T09:09:07;3.60;96.30
54202;DHT22;40108;53.152;5.844;2023-11-22T09:11:33;3.70;96.30
54202;DHT22;40108;53.152;5.844;2023-11-22T09:14:00;3.60;96.30
54202;DHT22;40108;53.152;5.844;2023-11-22T09:16:39;3.70;96.40
54202;DHT22;40108;53.152;5.844;2023-11-22T09:19:05;3.70;96.40
54202;DHT22;40108;53.152;5.844;2023-11-22T09:21:34;3.70;96.40
54202;DHT22;40108;53.152;5.844;2023-11-22T09:24:00;3.70;96.40
54202;DHT22;40108;53.152;5.844;2023-11-22T09:26:26;3.80;96.40
54202;DHT22;40108;53.152;5.844;2023-11-22T09:28:52;3.80;96.40
54202;DHT22;40108;53.152;5.844;2023-11-22T09:31:19;3.80;96.40
54202;DHT22;40108;53.152;5.844;2023-11-22T09:33:46;3.80;96.50
54202;DHT22;40108;53.152;5.844;2023-11-22T09:36:12;3.90;96.50
54202;DHT22;40108;53.152;5.844;2023-11-22T09:38:38;3.90;96.50
54202;DHT22;40108;53.152;5.844;2023-11-22T09:41:04;3.90;96.50
54202;DHT22;40108;53.152;5.844;2023-11-22T09:43:31;4.00;96.50
54202;DHT22;40108;53.152;5.844;2023-11-22T09:45:56;4.00;96.50
54202;DHT22;40108;53.152;5.844;2023-11-22T09:48:24;4.00;96.50
54202;DHT22;40108;53.152;5.844;2023-11-22T09:55:59;4.20;96.30
54202;DHT22;40108;53.152;5.844;2023-11-22T09:58:30;4.20;96.30
54202;DHT22;40108;53.152;5.844;2023-11-22T10:00:56;4.20;96.20
54202;DHT22;40108;53.152;5.844;2023-11-22T10:03:26;4.20;96.20
54202;DHT22;40108;53.152;5.844;2023-11-22T10:05:55;4.20;96.00
54202;DHT22;40108;53.152;5.844;2023-11-22T10:08:21;4.30;96.00
54202;DHT22;40108;53.152;5.844;2023-11-22T10:10:49;4.30;95.90
54202;DHT22;40108;53.152;5.844;2023-11-22T10:13:17;4.30;95.80
54202;DHT22;40108;53.152;5.844;2023-11-22T10:15:46;4.40;95.80
54202;DHT22;40108;53.152;5.844;2023-11-22T10:18:13;4.40;95.70
54202;DHT22;40108;53.152;5.844;2023-11-22T10:20:41;4.50;95.60
54202;DHT22;40108;53.152;5.844;2023-11-22T10:23:11;4.50;95.50
54202;DHT22;40108;53.152;5.844;2023-11-22T10:25:44;4.50;95.50
54202;DHT22;40108;53.152;5.844;2023-11-22T10:28:10;4.60;95.40
54202;DHT22;40108;53.152;5.844;2023-11-22T10:30:35;4.60;95.30
54202;DHT22;40108;53.152;5.844;2023-11-22T10:33:02;4.70;95.30
54202;DHT22;40108;53.152;5.844;2023-11-22T10:35:28;4.70;95.20
54202;DHT22;40108;53.152;5.844;2023-11-22T10:37:54;4.70;95.10
54202;DHT22;40108;53.152;5.844;2023-11-22T10:40:20;4.80;95.10
54202;DHT22;40108;53.152;5.844;2023-11-22T10:42:48;4.90;94.60
54202;DHT22;40108;53.152;5.844;2023-11-22T10:45:17;4.90;94.70
54202;DHT22;40108;53.152;5.844;2023-11-22T10:47:44;4.80;94.40
54202;DHT22;40108;53.152;5.844;2023-11-22T10:50:11;4.80;94.40
54202;DHT22;40108;53.152;5.844;2023-11-22T10:52:41;4.80;94.30
54202;DHT22;40108;53.152;5.844;2023-11-22T10:55:11;4.90;94.40
54202;DHT22;40108;53.152;5.844;2023-11-22T10:57:44;4.90;94.40
54202;DHT22;40108;53.152;5.844;2023-11-22T11:00:11;4.90;94.30
54202;DHT22;40108;53.152;5.844;2023-11-22T11:02:45;5.00;94.30
54202;DHT22;40108;53.152;5.844;2023-11-22T11:05:21;5.00;93.90
54202;DHT22;40108;53.152;5.844;2023-11-22T11:08:08;5.10;93.70
54202;DHT22;40108;53.152;5.844;2023-11-22T11:10:46;5.20;93.30
54202;DHT22;40108;53.152;5.844;2023-11-22T11:13:12;5.20;93.10
54202;DHT22;40108;53.152;5.844;2023-11-22T11:15:42;5.20;93.00
54202;DHT22;40108;53.152;5.844;2023-11-22T11:18:13;5.30;93.20
54202;DHT22;40108;53.152;5.844;2023-11-22T11:21:08;5.30;93.00
54202;DHT22;40108;53.152;5.844;2023-11-22T11:23:39;5.40;93.10
54202;DHT22;40108;53.152;5.844;2023-11-22T11:26:20;5.40;93.10
54202;DHT22;40108;53.152;5.844;2023-11-22T11:28:50;5.50;92.80
54202;DHT22;40108;53.152;5.844;2023-11-22T11:31:17;5.50;92.40
54202;DHT22;40108;53.152;5.844;2023-11-22T11:36:24;5.60;92.30
54202;DHT22;40108;53.152;5.844;2023-11-22T11:38:55;5.60;92.20
54202;DHT22;40108;53.152;5.844;2023-11-22T11:41:26;5.60;91.70
54202;DHT22;40108;53.152;5.844;2023-11-22T11:43:53;5.60;91.80
54202;DHT22;40108;53.152;5.844;2023-11-22T11:46:19;5.60;91.70
54202;DHT22;40108;53.152;5.844;2023-11-22T11:48:49;5.60;91.40
54202;DHT22;40108;53.152;5.844;2023-11-22T11:51:23;5.70;91.40
54202;DHT22;40108;53.152;5.844;2023-11-22T11:53:49;5.70;91.40
54202;DHT22;40108;53.152;5.844;2023-11-22T11:56:15;5.70;91.50
54202;DHT22;40108;53.152;5.844;2023-11-22T11:58:42;5.70;90.80
54202;DHT22;40108;53.152;5.844;2023-11-22T12:01:09;5.70;91.00
54202;DHT22;40108;53.152;5.844;2023-11-22T12:03:38;5.70;91.20
54202;DHT22;40108;53.152;5.844;2023-11-22T12:06:07;5.70;91.20
54202;DHT22;40108;53.152;5.844;2023-11-22T12:08:33;5.70;91.40
54202;DHT22;40108;53.152;5.844;2023-11-22T12:11:02;5.60;91.10
54202;DHT22;40108;53.152;5.844;2023-11-22T12:13:30;5.60;91.30
54202;DHT22;40108;53.152;5.844;2023-11-22T12:15:57;5.60;91.40
54202;DHT22;40108;53.152;5.844;2023-11-22T12:18:23;5.60;91.40
54202;DHT22;40108;53.152;5.844;2023-11-22T12:20:59;5.60;91.60
54202;DHT22;40108;53.152;5.844;2023-11-22T12:23:26;5.50;91.80
54202;DHT22;40108;53.152;5.844;2023-11-22T12:26:01;5.60;92.00
54202;DHT22;40108;53.152;5.844;2023-11-22T12:28:28;5.50;92.00
54202;DHT22;40108;53.152;5.844;2023-11-22T12:30:54;5.50;91.90
54202;DHT22;40108;53.152;5.844;2023-11-22T12:33:20;5.50;92.10
54202;DHT22;40108;53.152;5.844;2023-11-22T12:35:47;5.50;92.20
54202;DHT22;40108;53.152;5.844;2023-11-22T12:38:14;5.50;92.40
54202;DHT22;40108;53.152;5.844;2023-11-22T12:40:45;5.50;92.60
54202;DHT22;40108;53.152;5.844;2023-11-22T12:43:13;5.50;92.90
54202;DHT22;40108;53.152;5.844;2023-11-22T12:45:39;5.50;92.70
54202;DHT22;40108;53.152;5.844;2023-11-22T12:48:24;5.50;93.00
54202;DHT22;40108;53.152;5.844;2023-11-22T12:50:51;5.40;93.00
54202;DHT22;40108;53.152;5.844;2023-11-22T12:53:18;5.50;93.00
54202;DHT22;40108;53.152;5.844;2023-11-22T12:55:48;5.40;93.10
54202;DHT22;40108;53.152;5.844;2023-11-22T12:58:21;5.40;93.20
54202;DHT22;40108;53.152;5.844;2023-11-22T13:00:49;5.50;93.20
54202;DHT22;40108;53.152;5.844;2023-11-22T13:03:15;5.40;93.20
54202;DHT22;40108;53.152;5.844;2023-11-22T13:05:43;5.50;93.30
54202;DHT22;40108;53.152;5.844;2023-11-22T13:08:10;5.40;93.30
54202;DHT22;40108;53.152;5.844;2023-11-22T13:10:49;5.40;93.40
54202;DHT22;40108;53.152;5.844;2023-11-22T13:13:21;5.40;93.50
54202;DHT22;40108;53.152;5.844;2023-11-22T13:15:47;5.40;93.60
54202;DHT22;40108;53.152;5.844;2023-11-22T13:18:15;5.40;93.70
54202;DHT22;40108;53.152;5.844;2023-11-22T13:20:42;5.40;93.80
54202;DHT22;40108;53.152;5.844;2023-11-22T13:23:08;5.40;93.80
54202;DHT22;40108;53.152;5.844;2023-11-22T13:25:34;5.40;94.00
54202;DHT22;40108;53.152;5.844;2023-11-22T13:28:00;5.40;94.10
54202;DHT22;40108;53.152;5.844;2023-11-22T13:30:26;5.40;94.20
54202;DHT22;40108;53.152;5.844;2023-11-22T13:32:53;5.40;94.10
54202;DHT22;40108;53.152;5.844;2023-11-22T13:35:22;5.40;94.20
54202;DHT22;40108;53.152;5.844;2023-11-22T13:37:48;5.40;94.20
54202;DHT22;40108;53.152;5.844;2023-11-22T13:40:18;5.50;94.20
54202;DHT22;40108;53.152;5.844;2023-11-22T13:42:48;5.50;94.20
54202;DHT22;40108;53.152;5.844;2023-11-22T13:45:16;5.50;94.20
54202;DHT22;40108;53.152;5.844;2023-11-22T13:47:43;5.50;94.10
54202;DHT22;40108;53.152;5.844;2023-11-22T13:50:10;5.50;94.20
54202;DHT22;40108;53.152;5.844;2023-11-22T13:52:38;5.50;94.10
54202;DHT22;40108;53.152;5.844;2023-11-22T13:55:04;5.50;93.90
54202;DHT22;40108;53.152;5.844;2023-11-22T13:57:33;5.50;93.90
54202;DHT22;40108;53.152;5.844;2023-11-22T13:59:59;5.50;93.80
54202;DHT22;40108;53.152;5.844;2023-11-22T14:02:25;5.50;93.80
54202;DHT22;40108;53.152;5.844;2023-11-22T14:04:50;5.60;93.90
54202;DHT22;40108;53.152;5.844;2023-11-22T14:07:18;5.60;93.90
54202;DHT22;40108;53.152;5.844;2023-11-22T14:09:43;5.60;93.80
54202;DHT22;40108;53.152;5.844;2023-11-22T14:12:12;5.60;93.80
54202;DHT22;40108;53.152;5.844;2023-11-22T14:14:38;5.60;93.90
54202;DHT22;40108;53.152;5.844;2023-11-22T14:17:03;5.60;93.80
54202;DHT22;40108;53.152;5.844;2023-11-22T14:19:29;5.60;93.90
54202;DHT22;40108;53.152;5.844;2023-11-22T14:21:55;5.70;93.80
54202;DHT22;40108;53.152;5.844;2023-11-22T14:24:21;5.70;93.90
54202;DHT22;40108;53.152;5.844;2023-11-22T14:26:46;5.70;93.90
54202;DHT22;40108;53.152;5.844;2023-11-22T14:29:14;5.70;93.90
54202;DHT22;40108;53.152;5.844;2023-11-22T14:31:40;5.70;93.90
54202;DHT22;40108;53.152;5.844;2023-11-22T14:34:06;5.70;94.00
54202;DHT22;40108;53.152;5.844;2023-11-22T14:36:32;5.70;94.10
54202;DHT22;40108;53.152;5.844;2023-11-22T14:38:58;5.70;94.10
54202;DHT22;40108;53.152;5.844;2023-11-22T14:41:23;5.70;94.20
54202;DHT22;40108;53.152;5.844;2023-11-22T14:43:49;5.70;94.40
54202;DHT22;40108;53.152;5.844;2023-11-22T14:46:15;5.70;94.40
54202;DHT22;40108;53.152;5.844;2023-11-22T14:48:41;5.70;94.50
54202;DHT22;40108;53.152;5.844;2023-11-22T14:51:07;5.70;94.50
54202;DHT22;40108;53.152;5.844;2023-11-22T14:53:34;5.70;94.50
54202;DHT22;40108;53.152;5.844;2023-11-22T14:56:00;5.70;94.60
54202;DHT22;40108;53.152;5.844;2023-11-22T14:58:26;5.70;94.50
54202;DHT22;40108;53.152;5.844;2023-11-22T15:00:53;5.70;94.60
54202;DHT22;40108;53.152;5.844;2023-11-22T15:03:19;5.70;94.60
54202;DHT22;40108;53.152;5.844;2023-11-22T15:05:45;5.70;94.70
54202;DHT22;40108;53.152;5.844;2023-11-22T15:08:11;5.70;94.70
54202;DHT22;40108;53.152;5.844;2023-11-22T15:10:36;5.70;94.60
54202;DHT22;40108;53.152;5.844;2023-11-22T15:13:02;5.70;94.70
54202;DHT22;40108;53.152;5.844;2023-11-22T15:15:28;5.70;94.70
54202;DHT22;40108;53.152;5.844;2023-11-22T15:17:53;5.70;94.60
54202;DHT22;40108;53.152;5.844;2023-11-22T15:20:19;5.80;94.60
54202;DHT22;40108;53.152;5.844;2023-11-22T15:22:45;5.80;94.60
54202;DHT22;40108;53.152;5.844;2023-11-22T15:25:11;5.80;94.50
54202;DHT22;40108;53.152;5.844;2023-11-22T15:27:37;5.90;94.50
54202;DHT22;40108;53.152;5.844;2023-11-22T15:30:04;5.90;94.50
54202;DHT22;40108;53.152;5.844;2023-11-22T15:32:32;6.00;94.40
54202;DHT22;40108;53.152;5.844;2023-11-22T15:35:00;6.10;94.50
54202;DHT22;40108;53.152;5.844;2023-11-22T15:37:26;6.10;94.40
54202;DHT22;40108;53.152;5.844;2023-11-22T15:39:51;6.10;94.30
54202;DHT22;40108;53.152;5.844;2023-11-22T15:42:17;6.10;94.20
54202;DHT22;40108;53.152;5.844;2023-11-22T15:44:43;6.10;94.30
54202;DHT22;40108;53.152;5.844;2023-11-22T15:47:08;6.10;94.10
54202;DHT22;40108;53.152;5.844;2023-11-22T15:49:34;6.20;94.20
54202;DHT22;40108;53.152;5.844;2023-11-22T15:52:00;6.10;94.30